createdAt,value
2022-09-30T00:02:26.381Z,10.20
2022-09-30T00:04:53.025Z,7.00
2022-09-30T00:07:19.785Z,7.50
2022-09-30T00:10:08.959Z,12.57
2022-09-30T00:12:35.650Z,6.85
2022-09-30T00:15:02.393Z,6.22
2022-09-30T00:17:29.073Z,9.77
2022-09-30T00:19:55.700Z,10.82
2022-09-30T00:22:22.487Z,7.78
2022-09-30T00:24:49.221Z,10.52
2022-09-30T00:27:15.866Z,17.48
2022-09-30T00:32:29.914Z,12.60
2022-09-30T00:34:57.030Z,6.72
2022-09-30T00:37:23.789Z,7.90
2022-09-30T00:42:32.736Z,6.20
2022-09-30T00:45:07.982Z,13.25
2022-09-30T00:47:54.658Z,6.20
2022-09-30T00:50:50.552Z,6.53
2022-09-30T00:53:23.477Z,8.70
2022-09-30T00:56:01.895Z,14.30
2022-09-30T01:01:17.016Z,7.25
2022-09-30T01:04:06.030Z,7.38
2022-09-30T01:06:32.593Z,8.18
2022-09-30T01:09:00.746Z,10.00
2022-09-30T01:11:28.602Z,12.13
2022-09-30T01:14:00.846Z,17.05
2022-09-30T01:16:42.464Z,13.40
2022-09-30T01:19:30.732Z,8.05
2022-09-30T01:22:09.669Z,10.00
2022-09-30T01:24:57.022Z,13.98
2022-09-30T01:27:41.649Z,12.18
2022-09-30T01:30:21.800Z,10.25
2022-09-30T01:33:03.923Z,8.90
2022-09-30T01:36:06.545Z,7.90
2022-09-30T01:38:48.036Z,8.57
2022-09-30T01:41:26.336Z,10.23
2022-09-30T01:44:15.688Z,10.13
2022-09-30T01:46:55.538Z,10.00
2022-09-30T01:49:37.364Z,10.03
2022-09-30T01:52:06.029Z,9.50
2022-09-30T01:54:53.418Z,15.88
2022-09-30T01:57:25.937Z,14.05
2022-09-30T02:00:09.891Z,14.10
2022-09-30T02:03:02.341Z,10.17
2022-09-30T02:05:44.174Z,10.00
2022-09-30T02:08:20.555Z,10.55
2022-09-30T02:10:56.860Z,10.98
2022-09-30T02:13:37.308Z,12.00
2022-09-30T02:16:08.441Z,14.93
2022-09-30T02:18:40.141Z,13.35
2022-09-30T02:21:17.470Z,17.05
2022-09-30T02:23:49.402Z,10.60
2022-09-30T02:26:25.524Z,13.63
2022-09-30T02:28:56.880Z,13.47
2022-09-30T02:31:26.961Z,10.30
2022-09-30T02:33:59.681Z,9.95
2022-09-30T02:36:34.992Z,9.82
2022-09-30T02:41:46.774Z,9.67
2022-09-30T02:49:58.652Z,15.60
2022-09-30T02:52:47.963Z,17.20
2022-09-30T02:58:18.233Z,17.45
2022-09-30T03:00:45.476Z,14.63
2022-09-30T03:03:21.588Z,12.18
2022-09-30T03:05:50.142Z,9.45
2022-09-30T03:08:16.970Z,11.40
2022-09-30T03:10:45.459Z,8.00
2022-09-30T03:13:28.141Z,8.75
2022-09-30T03:16:19.332Z,14.60
2022-09-30T03:19:04.751Z,9.65
2022-09-30T03:22:02.072Z,8.83
2022-09-30T03:24:50.205Z,8.88
2022-09-30T03:27:35.770Z,9.50
2022-09-30T03:30:06.620Z,8.07
2022-09-30T03:32:46.915Z,9.27
2022-09-30T03:35:16.436Z,7.53
2022-09-30T03:38:12.205Z,12.02
2022-09-30T03:41:20.111Z,10.52
2022-09-30T03:44:20.676Z,11.63
2022-09-30T03:46:51.405Z,9.25
2022-09-30T03:49:23.126Z,7.77
2022-09-30T03:51:51.019Z,10.63
2022-09-30T03:54:17.850Z,8.05
2022-09-30T03:56:44.671Z,9.93
2022-09-30T03:59:22.193Z,15.15
2022-09-30T04:01:48.830Z,10.40
2022-09-30T04:04:15.807Z,9.57
2022-09-30T04:06:42.390Z,11.77
2022-09-30T04:09:09.054Z,8.23
2022-09-30T04:11:35.883Z,9.77
2022-09-30T04:14:03.043Z,18.07
2022-09-30T04:16:29.986Z,12.13
2022-09-30T04:18:56.892Z,10.40
2022-09-30T04:21:23.543Z,8.38
2022-09-30T04:23:50.487Z,10.27
2022-09-30T04:26:18.840Z,9.07
2022-09-30T04:28:46.108Z,9.48
2022-09-30T04:39:12.340Z,12.70
2022-09-30T04:41:41.870Z,8.85
2022-09-30T04:44:26.563Z,9.00
2022-09-30T04:49:28.787Z,9.27
2022-09-30T04:51:56.081Z,15.60
2022-09-30T05:03:02.204Z,13.38
2022-09-30T05:05:29.039Z,10.80
2022-09-30T05:16:12.304Z,8.95
2022-09-30T05:18:39.225Z,10.13
2022-09-30T05:21:06.170Z,9.15
2022-09-30T05:23:33.617Z,17.48
2022-09-30T05:26:01.575Z,13.35
2022-09-30T05:28:30.739Z,16.23
2022-09-30T05:33:43.158Z,13.93
2022-09-30T05:36:21.243Z,11.93
2022-09-30T05:39:00.158Z,20.63
2022-09-30T05:41:27.016Z,16.30
2022-09-30T05:43:54.132Z,13.83
2022-09-30T05:48:56.308Z,13.43
2022-09-30T05:51:28.656Z,11.25
2022-09-30T05:56:39.261Z,15.40
2022-09-30T06:05:58.343Z,11.10
2022-09-30T07:04:25.557Z,16.23
2022-09-30T07:06:52.169Z,19.33
2022-09-30T07:09:18.906Z,17.87
2022-09-30T07:11:45.906Z,21.38
2022-09-30T07:14:12.904Z,23.92
2022-09-30T07:16:54.366Z,20.80
2022-09-30T07:19:22.319Z,20.08
2022-09-30T07:22:39.276Z,23.90
2022-09-30T07:25:10.271Z,19.98
2022-09-30T07:27:37.274Z,18.27
2022-09-30T07:30:13.345Z,24.08
2022-09-30T07:35:40.763Z,16.17
2022-09-30T07:38:10.274Z,15.95
2022-09-30T07:40:37.052Z,16.90
2022-09-30T07:43:04.277Z,18.50
2022-09-30T07:45:35.819Z,22.45
2022-09-30T07:48:04.073Z,21.03
2022-09-30T07:50:40.307Z,13.27
2022-09-30T07:53:09.707Z,14.18
2022-09-30T07:55:58.789Z,13.07
2022-09-30T07:58:29.238Z,15.98
2022-09-30T08:08:59.787Z,13.20
2022-09-30T08:11:29.087Z,21.70
2022-09-30T08:13:58.836Z,16.93
2022-09-30T08:16:26.508Z,13.43
2022-09-30T08:19:02.579Z,13.77
2022-09-30T08:21:29.707Z,14.85
2022-09-30T08:23:59.716Z,13.73
2022-09-30T08:26:36.021Z,19.13
2022-09-30T08:29:05.364Z,12.00
2022-09-30T08:31:39.749Z,11.20
2022-09-30T08:34:11.196Z,13.45
2022-09-30T08:36:38.130Z,14.60
2022-09-30T08:39:05.467Z,11.93
2022-09-30T08:51:11.575Z,11.90
2022-09-30T08:53:46.475Z,9.80
2022-09-30T09:20:09.116Z,12.20
2022-09-30T09:25:49.976Z,8.90
2022-09-30T09:31:23.966Z,10.80
2022-09-30T09:34:39.561Z,5.60
2022-09-30T09:37:47.187Z,9.17
2022-09-30T10:57:42.522Z,2.40
2022-09-30T11:00:21.241Z,5.53
2022-09-30T11:05:00.151Z,4.68
2022-09-30T11:10:09.078Z,3.90
2022-09-30T11:21:12.406Z,2.33
2022-09-30T12:17:44.109Z,3.47
2022-09-30T16:07:16.924Z,5.33
2022-09-30T16:13:09.235Z,6.82
2022-09-30T17:09:46.734Z,4.35
2022-09-30T17:12:15.934Z,4.35
2022-09-30T17:14:42.593Z,3.75
2022-09-30T17:17:13.427Z,6.70
2022-09-30T17:22:32.507Z,3.83
2022-09-30T17:25:01.490Z,5.00
2022-09-30T17:27:43.572Z,7.15
2022-09-30T17:30:10.706Z,4.30
2022-09-30T17:32:38.359Z,7.63
2022-09-30T17:35:05.317Z,3.85
2022-09-30T17:37:32.147Z,6.20
2022-09-30T17:39:58.849Z,4.40
2022-09-30T17:42:25.804Z,5.07
2022-09-30T17:44:52.479Z,7.33
2022-09-30T17:47:21.235Z,5.72
2022-09-30T17:49:47.873Z,6.45
2022-09-30T17:52:15.638Z,4.60
2022-09-30T17:54:42.212Z,8.57
2022-09-30T17:57:08.957Z,7.23
2022-09-30T17:59:35.566Z,5.45
2022-09-30T18:02:02.517Z,5.20
2022-09-30T18:04:29.182Z,5.72
2022-09-30T18:06:56.649Z,6.38
2022-09-30T18:09:23.785Z,4.20
2022-09-30T18:11:50.428Z,8.85
2022-09-30T18:14:17.088Z,5.75
2022-09-30T18:16:43.810Z,4.50
2022-09-30T18:19:10.802Z,4.05
2022-09-30T18:21:42.668Z,3.90
2022-09-30T18:24:10.614Z,4.47
2022-09-30T18:26:37.284Z,4.53
2022-09-30T18:29:04.421Z,4.60
2022-09-30T18:31:32.422Z,5.13
2022-09-30T18:33:59.580Z,4.13
2022-09-30T18:36:27.168Z,6.00
2022-09-30T18:38:53.738Z,6.05
2022-09-30T18:41:20.383Z,7.25
2022-09-30T18:43:50.792Z,4.25
2022-09-30T18:46:17.384Z,7.93
2022-09-30T18:48:44.259Z,4.65
2022-09-30T18:51:26.058Z,6.30
2022-09-30T18:53:59.663Z,4.32
2022-09-30T18:56:32.523Z,9.35
2022-09-30T19:01:37.676Z,7.00
2022-09-30T19:04:13.346Z,14.85
2022-09-30T19:06:46.066Z,4.72
2022-09-30T19:09:13.086Z,6.05
2022-09-30T19:12:15.113Z,4.17
2022-09-30T19:14:41.775Z,5.43
2022-09-30T19:17:08.380Z,4.28
2022-09-30T19:19:35.333Z,6.65
2022-09-30T19:22:04.195Z,6.50
2022-09-30T19:24:30.843Z,4.77
2022-09-30T19:26:59.791Z,5.65
2022-09-30T19:29:26.443Z,3.78
2022-09-30T19:31:53.206Z,4.28
2022-09-30T19:34:28.786Z,7.07
2022-09-30T19:36:58.088Z,4.00
2022-09-30T19:39:26.391Z,4.50
2022-09-30T19:41:54.703Z,4.20
2022-09-30T19:44:22.096Z,4.60
2022-09-30T19:47:16.317Z,5.25
2022-09-30T19:49:44.329Z,3.80
2022-09-30T19:52:20.665Z,7.38
2022-09-30T19:54:48.439Z,4.15
2022-09-30T19:57:15.029Z,4.63
2022-09-30T19:59:47.202Z,3.90
2022-09-30T20:02:13.921Z,4.93
2022-09-30T20:04:40.539Z,3.40
2022-09-30T20:10:14.880Z,3.65
2022-09-30T20:12:53.133Z,4.35
2022-09-30T20:15:19.952Z,6.53
2022-09-30T20:18:09.843Z,4.75
2022-09-30T20:20:39.017Z,3.67
2022-09-30T20:23:12.556Z,5.47
2022-09-30T20:25:39.456Z,4.15
2022-09-30T20:28:06.592Z,5.90
2022-09-30T20:30:34.405Z,3.60
2022-09-30T20:33:03.252Z,3.35
2022-09-30T20:35:30.112Z,4.18
2022-09-30T20:37:56.793Z,3.65
2022-09-30T20:40:23.500Z,5.60
2022-09-30T20:42:50.110Z,9.80
2022-09-30T20:45:18.279Z,4.57
2022-09-30T20:47:46.307Z,3.15
2022-09-30T20:50:19.024Z,4.15
2022-09-30T20:52:50.677Z,4.53
2022-09-30T20:58:25.461Z,4.30
2022-09-30T21:01:04.101Z,5.60
2022-09-30T21:03:44.008Z,4.90
2022-09-30T21:08:52.075Z,5.43
2022-09-30T21:11:19.239Z,5.03
2022-09-30T21:13:47.811Z,5.10
2022-09-30T21:19:48.570Z,3.27
2022-09-30T21:22:25.168Z,2.78
2022-09-30T21:24:51.914Z,3.70
2022-09-30T21:27:45.511Z,4.57
2022-09-30T21:30:20.922Z,3.38
2022-09-30T21:32:50.263Z,5.50
2022-09-30T21:35:22.977Z,12.32
2022-09-30T21:37:49.629Z,5.95
2022-09-30T21:40:19.808Z,3.35
2022-09-30T21:42:52.552Z,8.82
2022-09-30T21:45:19.269Z,3.10
2022-09-30T21:48:02.717Z,7.22
2022-09-30T21:50:34.733Z,8.65
2022-09-30T21:55:41.740Z,5.95
2022-09-30T21:58:14.333Z,11.53
2022-09-30T22:00:43.856Z,5.47
2022-09-30T22:03:14.036Z,14.07
2022-09-30T22:05:40.984Z,4.72
2022-09-30T22:08:11.028Z,6.38
2022-09-30T22:10:45.169Z,8.63
2022-09-30T22:13:15.183Z,16.50
2022-09-30T22:15:44.587Z,5.63
2022-09-30T22:18:23.625Z,4.97
2022-09-30T22:20:57.942Z,6.43
2022-09-30T22:23:27.567Z,6.40
2022-09-30T22:25:54.141Z,5.28
2022-09-30T22:28:29.546Z,7.15
2022-09-30T22:30:59.094Z,9.55
2022-09-30T22:33:34.825Z,7.55
2022-09-30T22:36:01.549Z,5.40
2022-09-30T22:38:28.494Z,6.60
2022-09-30T22:40:57.459Z,8.43
2022-09-30T22:43:24.133Z,4.88
2022-09-30T22:46:08.276Z,14.68
2022-09-30T22:48:35.471Z,14.13
2022-09-30T22:51:02.098Z,12.02
2022-09-30T22:53:29.241Z,10.02
2022-09-30T22:58:51.859Z,6.18
2022-09-30T23:01:18.801Z,6.07
2022-09-30T23:03:52.713Z,8.55
2022-09-30T23:06:22.899Z,11.27
2022-09-30T23:08:50.226Z,7.97
2022-09-30T23:11:18.393Z,17.30
2022-09-30T23:13:46.197Z,8.73
2022-09-30T23:16:13.863Z,13.30
2022-09-30T23:18:40.843Z,6.80
2022-09-30T23:21:10.801Z,10.25
2022-09-30T23:23:38.871Z,8.23
2022-09-30T23:26:19.152Z,11.33
2022-09-30T23:28:46.757Z,7.97
2022-09-30T23:31:19.456Z,14.15
2022-09-30T23:33:51.672Z,9.43
2022-09-30T23:36:26.031Z,6.90
2022-09-30T23:38:53.687Z,11.57
2022-09-30T23:41:21.142Z,7.97
2022-09-30T23:43:47.877Z,7.22
2022-09-30T23:46:16.720Z,9.18
2022-09-30T23:48:43.952Z,9.52
2022-09-30T23:51:10.695Z,10.47
2022-09-30T23:53:37.603Z,11.05
2022-09-30T23:56:06.650Z,7.50
2022-09-30T23:58:34.372Z,9.88
